Terminal Aerodrome Forecast
Issued by NWS

Home | Current Version | Previous Version | Text Only | Print | Product List | Glossary On
Versions: 1 2 3 4 5 6 7 8 9 10 11 12 13
000
FTUS46 KSTO 261100
TAFRDD
TAF
KRDD 261139Z 2612/2712 VRB03KT P6SM FEW250
      TEMPO 2614/2616 4SM BR=

USA.gov is the U.S. government's official web portal to all federal, state and local government web resources and services.